createdAt,value
2023-09-09T00:00:05.915Z,86.77
2023-09-09T00:02:39.915Z,87.68
2023-09-09T00:05:08.219Z,87.03
2023-09-09T00:07:36.096Z,87.40
2023-09-09T00:10:06.152Z,87.19
2023-09-09T00:12:34.139Z,87.18
2023-09-09T00:15:05.477Z,87.33
2023-09-09T00:17:33.513Z,86.86
2023-09-09T00:20:01.403Z,87.20
2023-09-09T00:22:29.334Z,87.01
2023-09-09T00:24:57.201Z,86.96
2023-09-09T00:27:26.464Z,87.23
2023-09-09T00:29:54.415Z,86.84
2023-09-09T00:32:22.367Z,86.56
2023-09-09T00:34:50.293Z,86.60
2023-09-09T00:37:18.150Z,86.41
2023-09-09T00:39:46.048Z,86.79
2023-09-09T00:42:13.964Z,86.26
2023-09-09T00:44:43.290Z,86.30
2023-09-09T00:47:11.299Z,86.61
2023-09-09T00:49:39.335Z,86.71
2023-09-09T00:52:08.074Z,86.36
2023-09-09T00:54:36.024Z,86.35
2023-09-09T00:57:06.904Z,86.35
2023-09-09T00:59:35.507Z,86.29
2023-09-09T01:02:05.339Z,86.27
2023-09-09T01:04:33.590Z,86.67
2023-09-09T01:07:03.890Z,86.79
2023-09-09T01:09:35.139Z,86.59
2023-09-09T01:12:04.771Z,87.15
2023-09-09T01:14:32.999Z,87.50
2023-09-09T01:17:01.663Z,87.13
2023-09-09T01:19:32.553Z,86.84
2023-09-09T01:22:04.432Z,87.26
2023-09-09T01:24:33.809Z,87.01
2023-09-09T01:27:01.692Z,87.19
2023-09-09T01:29:29.620Z,86.38
2023-09-09T01:31:58.016Z,86.61
2023-09-09T01:34:27.385Z,86.79
2023-09-09T01:36:55.275Z,86.39
2023-09-09T01:39:23.203Z,86.63
2023-09-09T01:41:52.741Z,87.16
2023-09-09T01:44:20.650Z,87.50
2023-09-09T01:46:48.569Z,87.01
2023-09-09T01:49:16.744Z,87.66
2023-09-09T01:51:44.964Z,87.06
2023-09-09T01:54:13.313Z,87.00
2023-09-09T01:56:41.171Z,87.74
2023-09-09T01:59:10.561Z,87.51
2023-09-09T02:01:38.520Z,87.30
2023-09-09T02:04:06.710Z,86.83
2023-09-09T02:06:35.315Z,86.34
2023-09-09T02:09:05.140Z,86.90
2023-09-09T02:11:33.054Z,86.36
2023-09-09T02:14:00.962Z,86.56
2023-09-09T02:16:30.377Z,86.90
2023-09-09T02:18:59.792Z,87.02
2023-09-09T02:21:27.682Z,87.44
2023-09-09T02:23:55.665Z,87.43
2023-09-09T02:26:23.600Z,87.89
2023-09-09T02:28:51.617Z,87.39
2023-09-09T02:31:19.661Z,86.95
2023-09-09T02:33:49.032Z,86.90
2023-09-09T02:36:17.065Z,87.24
2023-09-09T02:38:45.006Z,87.41
2023-09-09T02:41:12.911Z,87.18
2023-09-09T02:43:40.815Z,87.34
2023-09-09T02:46:08.776Z,87.48
2023-09-09T02:48:36.945Z,87.46
2023-09-09T02:51:06.819Z,87.24
2023-09-09T02:53:35.016Z,87.11
2023-09-09T02:56:03.068Z,87.02
2023-09-09T02:58:30.996Z,87.47
2023-09-09T03:01:05.234Z,87.54
2023-09-09T03:03:34.030Z,87.49
2023-09-09T03:06:02.719Z,87.52
2023-09-09T03:08:32.156Z,87.71
2023-09-09T03:11:00.228Z,87.85
2023-09-09T03:13:28.682Z,87.58
2023-09-09T03:15:56.707Z,88.36
2023-09-09T03:18:24.726Z,88.08
2023-09-09T03:20:53.525Z,88.27
2023-09-09T03:23:21.619Z,88.00
2023-09-09T03:25:50.969Z,88.31
2023-09-09T03:28:18.816Z,88.36
2023-09-09T03:30:56.771Z,87.49
2023-09-09T03:33:28.594Z,88.28
2023-09-09T03:35:56.539Z,87.65
2023-09-09T03:38:24.784Z,88.29
2023-09-09T03:40:54.159Z,88.90
2023-09-09T03:43:22.550Z,89.38
2023-09-09T03:45:55.805Z,88.90
2023-09-09T03:48:24.383Z,88.76
2023-09-09T03:50:52.593Z,89.08
2023-09-09T03:53:20.607Z,89.68
2023-09-09T03:55:48.713Z,90.10
2023-09-09T03:58:18.173Z,89.49
2023-09-09T04:00:48.023Z,89.52
2023-09-09T04:03:16.722Z,89.17
2023-09-09T04:05:48.236Z,88.67
2023-09-09T04:08:16.235Z,88.33
2023-09-09T04:10:44.694Z,89.44
2023-09-09T04:13:12.596Z,89.54
2023-09-09T04:15:42.071Z,88.71
2023-09-09T04:18:10.091Z,88.74
2023-09-09T04:20:38.100Z,88.57
2023-09-09T04:23:06.156Z,89.23
2023-09-09T04:25:34.185Z,88.82
2023-09-09T04:28:02.221Z,88.54
2023-09-09T04:30:30.167Z,88.92
2023-09-09T04:33:00.185Z,89.60
2023-09-09T04:35:28.327Z,89.08
2023-09-09T04:37:56.232Z,90.04
2023-09-09T04:40:24.143Z,89.72
2023-09-09T04:42:52.108Z,89.43
2023-09-09T04:45:20.411Z,89.73
2023-09-09T04:47:48.612Z,89.79
2023-09-09T04:50:18.068Z,89.32
2023-09-09T04:52:46.006Z,90.03
2023-09-09T04:55:13.928Z,89.60
2023-09-09T04:57:42.381Z,89.55
2023-09-09T05:00:12.712Z,89.86
2023-09-09T05:02:41.586Z,89.44
2023-09-09T05:05:09.833Z,89.02
2023-09-09T05:07:39.335Z,88.64
2023-09-09T05:10:09.396Z,89.37
2023-09-09T05:12:38.661Z,88.73
2023-09-09T05:15:11.321Z,89.32
2023-09-09T05:17:40.078Z,90.13
2023-09-09T05:20:09.198Z,89.38
2023-09-09T05:22:38.873Z,89.10
2023-09-09T05:25:07.717Z,89.19
2023-09-09T05:27:35.659Z,89.14
2023-09-09T05:30:03.775Z,88.44
2023-09-09T05:32:32.026Z,88.32
2023-09-09T05:34:59.985Z,88.31
2023-09-09T05:37:28.529Z,87.96
2023-09-09T05:39:58.274Z,87.68
2023-09-09T05:42:27.082Z,87.65
2023-09-09T05:44:55.065Z,86.46
2023-09-09T05:47:23.000Z,85.24
2023-09-09T05:49:51.403Z,83.52
2023-09-09T05:52:19.344Z,82.90
2023-09-09T05:54:47.242Z,82.01
2023-09-09T05:57:16.536Z,80.74
2023-09-09T05:59:44.747Z,80.66
2023-09-09T06:02:14.601Z,79.45
2023-09-09T06:04:42.773Z,78.15
2023-09-09T06:07:10.892Z,76.39
2023-09-09T06:09:38.852Z,75.00
2023-09-09T06:12:07.706Z,72.65
2023-09-09T06:14:37.173Z,71.71
2023-09-09T06:17:05.832Z,70.22
2023-09-09T06:19:33.844Z,68.45
2023-09-09T06:22:01.769Z,68.22
2023-09-09T06:24:30.339Z,66.62
2023-09-09T06:26:58.646Z,65.17
2023-09-09T06:29:27.428Z,64.99
2023-09-09T06:31:57.390Z,63.84
2023-09-09T06:34:25.850Z,62.71
2023-09-09T06:36:54.427Z,60.96
2023-09-09T06:39:22.314Z,59.68
2023-09-09T06:41:53.044Z,58.64
2023-09-09T06:44:25.557Z,57.33
2023-09-09T06:46:53.439Z,56.77
2023-09-09T06:49:22.689Z,55.94
2023-09-09T06:51:50.648Z,54.85
2023-09-09T06:54:18.532Z,55.02
2023-09-09T06:56:48.061Z,53.32
2023-09-09T06:59:15.927Z,52.16
2023-09-09T07:01:44.419Z,51.23
2023-09-09T07:04:12.404Z,51.26
2023-09-09T07:06:52.211Z,50.54
2023-09-09T07:09:31.014Z,49.03
2023-09-09T07:12:00.236Z,48.75
2023-09-09T07:14:28.112Z,48.10
2023-09-09T07:16:55.974Z,47.83
2023-09-09T07:19:23.898Z,46.84
2023-09-09T07:21:53.210Z,46.55
2023-09-09T07:24:21.235Z,46.98
2023-09-09T07:26:49.478Z,46.23
2023-09-09T07:29:17.348Z,45.46
2023-09-09T07:31:45.111Z,44.75
2023-09-09T07:34:13.096Z,44.25
2023-09-09T07:36:41.083Z,43.60
2023-09-09T07:39:10.115Z,43.78
2023-09-09T07:41:38.051Z,43.47
2023-09-09T07:44:06.260Z,43.79
2023-09-09T07:46:34.282Z,41.71
2023-09-09T07:49:02.237Z,42.20
2023-09-09T07:51:30.437Z,41.43
2023-09-09T07:53:58.359Z,40.78
2023-09-09T07:56:27.669Z,40.07
2023-09-09T07:58:55.743Z,40.51
2023-09-09T08:01:23.819Z,40.42
2023-09-09T08:03:51.800Z,40.14
2023-09-09T08:06:19.776Z,39.66
2023-09-09T08:08:48.835Z,40.00
2023-09-09T08:11:18.631Z,40.03
2023-09-09T08:13:47.916Z,39.30
2023-09-09T08:16:15.926Z,38.96
2023-09-09T08:18:43.993Z,40.46
2023-09-09T08:21:14.084Z,39.92
2023-09-09T08:23:42.072Z,39.46
2023-09-09T08:26:10.715Z,39.42
2023-09-09T08:28:38.693Z,39.22
2023-09-09T08:31:08.167Z,39.27
2023-09-09T08:33:36.593Z,39.77
2023-09-09T08:36:05.311Z,39.69
2023-09-09T08:38:33.566Z,38.86
2023-09-09T08:41:06.133Z,38.83
2023-09-09T08:43:42.808Z,38.26
2023-09-09T08:46:16.105Z,37.91
2023-09-09T08:48:44.777Z,37.80
2023-09-09T08:51:15.440Z,37.90
2023-09-09T08:53:45.179Z,38.20
2023-09-09T08:56:14.270Z,38.01
2023-09-09T08:58:42.443Z,38.15
2023-09-09T09:01:11.039Z,37.87
2023-09-09T09:03:41.635Z,37.61
2023-09-09T09:06:10.961Z,38.17
2023-09-09T09:08:38.968Z,37.89
2023-09-09T09:11:08.362Z,38.89
2023-09-09T09:13:36.507Z,38.68
2023-09-09T09:16:05.186Z,38.70
2023-09-09T09:18:33.189Z,39.36
2023-09-09T09:21:09.400Z,40.16
2023-09-09T09:23:44.157Z,40.07
2023-09-09T09:26:25.008Z,39.15
2023-09-09T09:28:53.587Z,40.00
2023-09-09T09:31:22.397Z,41.19
2023-09-09T09:33:51.797Z,40.98
2023-09-09T09:36:21.652Z,39.72
2023-09-09T09:38:50.535Z,40.96
2023-09-09T09:41:19.353Z,40.94
2023-09-09T09:43:48.005Z,41.53
2023-09-09T09:46:16.632Z,40.87
2023-09-09T09:48:44.991Z,40.51
2023-09-09T09:51:13.204Z,40.39
2023-09-09T09:53:53.168Z,38.92
2023-09-09T09:56:21.554Z,40.87
2023-09-09T09:58:51.385Z,41.08
2023-09-09T10:01:19.495Z,41.24
2023-09-09T10:03:49.504Z,40.53
2023-09-09T10:06:21.388Z,40.64
2023-09-09T10:08:58.205Z,41.49
2023-09-09T10:11:29.990Z,40.56
2023-09-09T10:14:09.064Z,40.71
2023-09-09T10:16:38.710Z,40.30
2023-09-09T10:19:07.296Z,40.98
2023-09-09T10:21:42.493Z,41.27
2023-09-09T10:24:13.199Z,40.89
2023-09-09T10:26:42.206Z,41.31
2023-09-09T10:29:11.046Z,42.00
2023-09-09T10:31:39.502Z,41.46
2023-09-09T10:34:10.287Z,41.54
2023-09-09T10:36:50.890Z,43.09
2023-09-09T10:39:29.277Z,42.88
2023-09-09T10:41:58.118Z,43.44
2023-09-09T10:44:26.342Z,43.14
2023-09-09T10:46:58.674Z,42.44
2023-09-09T10:49:28.394Z,42.23
2023-09-09T10:51:57.085Z,42.56
2023-09-09T10:54:26.995Z,42.46
2023-09-09T10:56:59.316Z,43.38
2023-09-09T10:59:29.924Z,44.13
2023-09-09T11:02:11.644Z,44.24
2023-09-09T11:04:41.005Z,43.78
2023-09-09T11:07:10.710Z,43.14
2023-09-09T11:09:39.334Z,43.21
2023-09-09T11:12:15.844Z,42.79
2023-09-09T11:14:47.534Z,42.96
2023-09-09T11:17:15.801Z,42.58
2023-09-09T11:19:45.150Z,43.00
2023-09-09T11:22:13.610Z,44.00
2023-09-09T11:24:42.338Z,43.87
2023-09-09T11:27:11.752Z,43.44
2023-09-09T11:29:41.079Z,43.12
2023-09-09T11:32:11.395Z,43.03
2023-09-09T11:34:39.607Z,43.35
2023-09-09T11:37:07.416Z,42.84
2023-09-09T11:39:40.641Z,44.30
2023-09-09T11:42:08.540Z,45.44
2023-09-09T11:44:40.632Z,45.72
2023-09-09T11:47:10.334Z,45.88
2023-09-09T11:49:39.745Z,46.52
2023-09-09T11:52:07.933Z,45.21
2023-09-09T11:54:36.296Z,44.93
2023-09-09T11:57:08.336Z,45.57
2023-09-09T11:59:45.696Z,45.01
2023-09-09T12:02:22.248Z,45.46
2023-09-09T12:05:00.668Z,44.57
2023-09-09T12:07:32.633Z,45.57
2023-09-09T12:10:01.928Z,45.06
2023-09-09T12:12:30.497Z,45.66
2023-09-09T12:15:00.229Z,44.45
2023-09-09T12:17:30.392Z,44.06
2023-09-09T12:19:59.231Z,45.04
2023-09-09T12:22:36.807Z,45.85
2023-09-09T12:25:07.308Z,46.51
2023-09-09T12:27:43.090Z,47.06
2023-09-09T12:30:32.459Z,46.51
2023-09-09T12:33:07.683Z,46.02
2023-09-09T12:35:36.634Z,46.04
2023-09-09T12:38:05.403Z,45.78
2023-09-09T12:40:49.157Z,44.91
2023-09-09T12:43:18.366Z,45.00
2023-09-09T12:45:50.893Z,46.94
2023-09-09T12:48:21.159Z,45.86
2023-09-09T12:50:50.593Z,46.43
2023-09-09T12:53:18.861Z,46.73
2023-09-09T12:55:46.915Z,46.27
2023-09-09T12:58:15.028Z,46.91
2023-09-09T13:00:43.126Z,46.71
2023-09-09T13:03:11.141Z,47.45
2023-09-09T13:05:40.358Z,46.68
2023-09-09T13:08:08.263Z,47.29
2023-09-09T13:10:36.157Z,48.40
2023-09-09T13:13:04.292Z,49.07
2023-09-09T13:15:32.311Z,49.13
2023-09-09T13:18:00.310Z,50.04
2023-09-09T13:20:28.255Z,50.52
2023-09-09T13:22:57.815Z,50.39
2023-09-09T13:25:25.826Z,51.69
2023-09-09T13:27:53.969Z,50.80
2023-09-09T13:30:21.877Z,50.93
2023-09-09T13:32:49.823Z,50.35
2023-09-09T13:35:18.193Z,50.08
2023-09-09T13:37:46.032Z,49.52
2023-09-09T13:40:16.063Z,51.88
2023-09-09T13:42:45.070Z,51.41
2023-09-09T13:45:13.495Z,50.46
2023-09-09T13:47:41.579Z,51.57
2023-09-09T13:50:10.574Z,51.52
2023-09-09T13:52:38.661Z,52.09
2023-09-09T13:55:07.222Z,52.47
2023-09-09T13:57:36.480Z,53.07
2023-09-09T14:00:05.990Z,53.08
2023-09-09T14:02:34.022Z,53.16
2023-09-09T14:05:02.083Z,53.16
2023-09-09T14:07:29.974Z,54.77
2023-09-09T14:09:57.849Z,55.97
2023-09-09T14:12:25.738Z,55.05
2023-09-09T14:14:55.034Z,54.72
2023-09-09T14:17:22.964Z,56.08
2023-09-09T14:19:50.899Z,55.69
2023-09-09T14:22:18.824Z,56.31
2023-09-09T14:24:46.808Z,56.44
2023-09-09T14:27:14.864Z,57.12
2023-09-09T14:29:44.395Z,57.06
2023-09-09T14:32:13.693Z,56.71
2023-09-09T14:34:41.583Z,56.64
2023-09-09T14:37:09.521Z,56.80
2023-09-09T14:39:37.762Z,56.64
2023-09-09T14:42:06.464Z,57.83
2023-09-09T14:44:34.653Z,57.86
2023-09-09T14:47:02.590Z,58.34
2023-09-09T14:49:32.441Z,58.67
2023-09-09T14:52:00.579Z,58.99
2023-09-09T14:54:28.516Z,58.88
2023-09-09T14:56:56.490Z,59.88
2023-09-09T14:59:24.717Z,58.73
2023-09-09T15:01:52.843Z,58.72
2023-09-09T15:04:21.399Z,58.77
2023-09-09T15:06:50.857Z,59.30
2023-09-09T15:09:18.798Z,60.68
2023-09-09T15:11:46.738Z,59.68
2023-09-09T15:14:14.662Z,59.55
2023-09-09T15:16:50.303Z,59.90
2023-09-09T15:19:19.054Z,60.21
2023-09-09T15:21:47.333Z,60.15
2023-09-09T15:24:16.970Z,60.07
2023-09-09T15:26:44.917Z,59.98
2023-09-09T15:29:12.980Z,59.96
2023-09-09T15:31:41.137Z,59.73
2023-09-09T15:34:09.088Z,60.16
2023-09-09T15:36:37.090Z,60.72
2023-09-09T15:39:05.474Z,61.61
2023-09-09T15:41:34.797Z,61.03
2023-09-09T15:44:03.520Z,61.01
2023-09-09T15:46:31.635Z,60.93
2023-09-09T15:48:59.794Z,61.19
2023-09-09T15:51:28.188Z,60.89
2023-09-09T15:53:56.166Z,61.37
2023-09-09T15:56:25.689Z,61.38
2023-09-09T15:58:55.316Z,62.25
2023-09-09T16:01:23.319Z,62.01
2023-09-09T16:03:51.387Z,62.96
2023-09-09T16:06:19.384Z,62.04
2023-09-09T16:08:47.518Z,62.43
2023-09-09T16:11:15.552Z,62.40
2023-09-09T16:13:43.462Z,63.54
2023-09-09T16:16:13.148Z,62.47
2023-09-09T16:18:42.961Z,63.14
2023-09-09T16:21:10.977Z,62.73
2023-09-09T16:23:38.956Z,62.23
2023-09-09T16:26:07.092Z,63.15
2023-09-09T16:28:35.036Z,63.25
2023-09-09T16:31:05.504Z,62.93
2023-09-09T16:33:34.996Z,63.12
2023-09-09T16:36:04.552Z,63.57
2023-09-09T16:38:32.794Z,64.43
2023-09-09T16:41:00.675Z,64.99
2023-09-09T16:43:28.789Z,65.30
2023-09-09T16:45:56.870Z,65.83
2023-09-09T16:48:24.871Z,65.79
2023-09-09T16:50:54.326Z,66.04
2023-09-09T16:53:22.443Z,66.58
2023-09-09T16:55:50.519Z,66.41
2023-09-09T16:58:18.620Z,66.98
2023-09-09T17:00:49.662Z,67.50
2023-09-09T17:03:18.223Z,67.12
2023-09-09T17:05:46.572Z,67.04
2023-09-09T17:08:15.846Z,67.21
2023-09-09T17:10:43.998Z,67.60
2023-09-09T17:13:11.915Z,67.65
2023-09-09T17:15:41.996Z,67.64
2023-09-09T17:18:10.410Z,68.06
2023-09-09T17:20:38.487Z,68.09
2023-09-09T17:23:06.464Z,68.18
2023-09-09T17:25:36.433Z,67.97
2023-09-09T17:28:05.646Z,68.26
2023-09-09T17:30:33.661Z,68.50
2023-09-09T17:33:01.752Z,68.02
2023-09-09T17:35:29.962Z,68.45
2023-09-09T17:37:57.932Z,68.12
2023-09-09T17:40:26.019Z,68.07
2023-09-09T17:42:55.468Z,68.30
2023-09-09T17:45:23.437Z,68.40
2023-09-09T17:47:51.359Z,68.29
2023-09-09T17:50:19.434Z,68.48
2023-09-09T17:52:47.442Z,69.60
2023-09-09T17:55:15.720Z,69.79
2023-09-09T17:57:43.590Z,69.63
2023-09-09T18:00:13.565Z,69.67
2023-09-09T18:02:43.223Z,69.95
2023-09-09T18:05:11.513Z,70.11
2023-09-09T18:07:39.673Z,71.13
2023-09-09T18:10:11.250Z,71.22
2023-09-09T18:12:39.970Z,70.89
2023-09-09T18:15:08.040Z,71.39
2023-09-09T18:17:37.416Z,71.30
2023-09-09T18:20:06.204Z,71.82
2023-09-09T18:22:34.077Z,71.73
2023-09-09T18:25:02.565Z,72.57
2023-09-09T18:27:30.527Z,73.12
2023-09-09T18:30:00.669Z,73.85
2023-09-09T18:32:28.663Z,74.18
2023-09-09T18:34:58.110Z,73.70
2023-09-09T18:37:26.083Z,73.57
2023-09-09T18:39:54.075Z,73.37
2023-09-09T18:42:21.979Z,73.16
2023-09-09T18:44:50.008Z,72.88
2023-09-09T18:47:18.062Z,72.64
2023-09-09T18:49:46.095Z,72.77
2023-09-09T18:52:15.439Z,73.13
2023-09-09T18:54:44.800Z,73.07
2023-09-09T18:57:13.490Z,73.39
2023-09-09T18:59:41.214Z,73.30
2023-09-09T19:02:09.230Z,73.88
2023-09-09T19:04:37.233Z,74.22
2023-09-09T19:07:05.759Z,74.23
2023-09-09T19:09:35.003Z,75.10
2023-09-09T19:12:03.004Z,75.00
2023-09-09T19:14:30.916Z,75.10
2023-09-09T19:16:58.867Z,75.46
2023-09-09T19:19:26.809Z,75.07
2023-09-09T19:21:54.944Z,75.89
2023-09-09T19:24:22.924Z,75.84
2023-09-09T19:26:52.226Z,76.49
2023-09-09T19:29:20.136Z,75.75
2023-09-09T19:31:48.143Z,75.94
2023-09-09T19:34:16.140Z,76.01
2023-09-09T19:36:45.486Z,76.15
2023-09-09T19:39:14.858Z,76.26
2023-09-09T19:41:45.230Z,76.03
2023-09-09T19:44:14.497Z,75.88
2023-09-09T19:46:42.418Z,76.29
2023-09-09T19:49:10.431Z,76.40
2023-09-09T19:51:38.293Z,76.49
2023-09-09T19:54:06.446Z,76.25
2023-09-09T19:56:34.787Z,76.05
2023-09-09T19:59:02.827Z,76.27
2023-09-09T20:01:32.175Z,76.66
2023-09-09T20:04:00.397Z,76.79
2023-09-09T20:06:28.427Z,76.68
2023-09-09T20:08:56.393Z,76.87
2023-09-09T20:11:24.422Z,77.28
2023-09-09T20:13:52.424Z,77.60
2023-09-09T20:16:20.520Z,78.14
2023-09-09T20:18:49.850Z,78.15
2023-09-09T20:21:17.731Z,78.35
2023-09-09T20:23:45.674Z,78.76
2023-09-09T20:26:13.617Z,79.12
2023-09-09T20:28:41.945Z,79.41
2023-09-09T20:31:10.222Z,79.11
2023-09-09T20:33:38.167Z,79.89
2023-09-09T20:36:08.657Z,80.33
2023-09-09T20:38:37.215Z,80.34
2023-09-09T20:41:05.393Z,80.58
2023-09-09T20:43:33.598Z,80.63
2023-09-09T20:46:09.590Z,80.80
2023-09-09T20:48:37.844Z,81.04
2023-09-09T20:51:07.440Z,80.95
2023-09-09T20:53:35.540Z,81.09
2023-09-09T20:56:09.794Z,81.41
2023-09-09T20:58:38.347Z,81.31
2023-09-09T21:01:07.066Z,81.27
2023-09-09T21:03:35.107Z,81.75
2023-09-09T21:06:03.556Z,81.80
2023-09-09T21:08:33.055Z,82.07
2023-09-09T21:11:01.080Z,82.27
2023-09-09T21:13:29.133Z,82.85
2023-09-09T21:15:57.144Z,83.06
2023-09-09T21:18:25.044Z,83.45
2023-09-09T21:20:52.964Z,83.67
2023-09-09T21:23:20.896Z,84.04
2023-09-09T21:25:50.178Z,83.98
2023-09-09T21:28:18.292Z,84.47
2023-09-09T21:30:46.675Z,84.87
2023-09-09T21:33:14.588Z,85.15
2023-09-09T21:35:42.652Z,85.17
2023-09-09T21:38:10.580Z,84.81
2023-09-09T21:40:38.513Z,85.28
2023-09-09T21:43:07.808Z,85.36
2023-09-09T21:45:35.772Z,85.34
2023-09-09T21:48:03.792Z,85.89
2023-09-09T21:50:31.723Z,85.54
2023-09-09T21:52:59.695Z,85.76
2023-09-09T21:55:27.689Z,86.37
2023-09-09T21:57:55.644Z,86.00
2023-09-09T22:00:25.086Z,86.09
2023-09-09T22:02:53.504Z,85.95
2023-09-09T22:05:21.845Z,86.18
2023-09-09T22:07:49.892Z,86.27
2023-09-09T22:10:18.288Z,86.32
2023-09-09T22:12:46.733Z,86.03
2023-09-09T22:15:14.678Z,86.23
2023-09-09T22:17:44.003Z,85.81
2023-09-09T22:20:13.194Z,85.82
2023-09-09T22:22:42.003Z,86.09
2023-09-09T22:25:10.741Z,86.55
2023-09-09T22:27:38.760Z,86.47
2023-09-09T22:30:07.846Z,86.85
2023-09-09T22:32:35.925Z,86.59
2023-09-09T22:35:07.127Z,86.64
2023-09-09T22:37:36.199Z,86.69
2023-09-09T22:40:05.183Z,86.41
2023-09-09T22:42:33.169Z,85.92
2023-09-09T22:45:01.072Z,86.21
2023-09-09T22:47:29.016Z,86.41
2023-09-09T22:49:57.172Z,85.70
2023-09-09T22:52:26.542Z,85.31
2023-09-09T22:54:54.615Z,85.04
2023-09-09T22:57:22.751Z,84.63
2023-09-09T22:59:50.978Z,84.02
2023-09-09T23:02:18.905Z,84.32
2023-09-09T23:04:51.130Z,84.99
2023-09-09T23:07:19.313Z,85.86
2023-09-09T23:09:53.774Z,86.39
2023-09-09T23:12:21.882Z,86.15
2023-09-09T23:14:49.780Z,85.94
2023-09-09T23:17:17.728Z,86.25
2023-09-09T23:19:45.718Z,85.95
2023-09-09T23:22:13.741Z,86.10
2023-09-09T23:24:43.320Z,86.42
2023-09-09T23:27:12.619Z,86.26
2023-09-09T23:29:40.502Z,86.00
2023-09-09T23:32:08.688Z,85.50
2023-09-09T23:34:38.840Z,85.94
2023-09-09T23:37:06.981Z,86.49
2023-09-09T23:39:34.926Z,86.46
2023-09-09T23:42:03.978Z,86.43
2023-09-09T23:44:33.214Z,86.19
2023-09-09T23:47:01.188Z,86.68
2023-09-09T23:49:29.119Z,85.99
2023-09-09T23:51:57.009Z,86.28
2023-09-09T23:54:24.883Z,85.96
2023-09-09T23:56:52.839Z,86.48
2023-09-09T23:59:20.788Z,86.58
